| time (UTC) | temp C | wind direction | speed KPH | gust KPH | rain 1hr cm | rain 24hr cm | rain mn cm | humidity % | barometer mb |
| 20260505011919 | 23 | 113 | 3.2 | 8.0 | 0.00 | 0.48 | 0.48 | 48 | 1004.0 |
| 20260505011416 | 24 | 347 | 3.2 | 4.8 | 0.00 | 0.48 | 0.48 | 48 | 1003.8 |
| 20260505010913 | 24 | 11 | 6.4 | 9.7 | 0.00 | 0.48 | 0.48 | 48 | 1003.9 |
| 20260505010408 | 24 | 354 | 3.2 | 6.4 | 0.00 | 0.48 | 0.48 | 47 | 1003.9 |
| 20260505005904 | 25 | 307 | 3.2 | 9.7 | 0.00 | 0.48 | 0.48 | 46 | 1003.8 |
| 20260505005401 | 25 | 132 | 6.4 | 8.0 | 0.00 | 0.48 | 0.48 | 46 | 1003.5 |
| 20260505004859 | 25 | 337 | 3.2 | 14.5 | 0.00 | 0.48 | 0.48 | 45 | 1003.6 |
| 20260505004355 | 25 | 84 | 3.2 | 11.3 | 0.00 | 0.48 | 0.48 | 45 | 1003.4 |
| 20260505003852 | 25 | 21 | 6.4 | 9.7 | 0.00 | 0.48 | 0.48 | 45 | 1003.3 |
| 20260505003350 | 25 | 66 | 3.2 | 11.3 | 0.00 | 0.48 | 0.48 | 45 | 1003.4 |
| 20260505002845 | 25 | 355 | 6.4 | 9.7 | 0.00 | 0.48 | 0.48 | 45 | 1003.5 |
| 20260505002342 | 25 | 338 | 4.8 | 9.7 | 0.00 | 0.48 | 0.48 | 44 | 1003.5 |
| 20260505001841 | 25 | 152 | 3.2 | 8.0 | 0.00 | 0.48 | 0.48 | 44 | 1003.5 |
| 20260505001338 | 26 | 325 | 3.2 | 11.3 | 0.00 | 0.48 | 0.48 | 44 | 1003.5 |
| 20260505000835 | 26 | 216 | 0.0 | 12.9 | 0.00 | 0.48 | 0.48 | 44 | 1003.4 |
| 20260505000333 | 26 | 236 | 6.4 | 9.7 | 0.00 | 0.48 | 0.48 | 44 | 1003.5 |
| 20260504235829 | 26 | 253 | 8.0 | 16.1 | 0.00 | 0.48 | 0.48 | 43 | 1003.4 |
| 20260504235326 | 26 | 32 | 4.8 | 9.7 | 0.00 | 0.48 | 0.48 | 43 | 1003.4 |
| 20260504234823 | 27 | 295 | 8.0 | 9.7 | 0.00 | 0.48 | 0.48 | 42 | 1003.4 |
| 20260504234320 | 27 | 37 | 4.8 | 8.0 | 0.00 | 0.48 | 0.48 | 42 | 1003.4 |
| 20260504233817 | 27 | 160 | 9.7 | 12.9 | 0.00 | 0.48 | 0.48 | 42 | 1003.3 |
| 20260504233312 | 27 | 299 | 3.2 | 16.1 | 0.00 | 0.48 | 0.48 | 43 | 1003.4 |
| 20260504232809 | 27 | 310 | 4.8 | 9.7 | 0.00 | 0.48 | 0.48 | 42 | 1003.5 |
| 20260504232307 | 28 | 139 | 6.4 | 24.1 | 0.00 | 0.48 | 0.48 | 41 | 1003.6 |
| 20260504231803 | 28 | 100 | 3.2 | 9.7 | 0.00 | 0.48 | 0.48 | 41 | 1003.8 |
| 20260504231300 | 28 | 307 | 8.0 | 14.5 | 0.00 | 0.48 | 0.48 | 40 | 1003.6 |
| 20260504230756 | 28 | 296 | 9.7 | 12.9 | 0.00 | 0.48 | 0.48 | 41 | 1003.7 |
| 20260504230254 | 28 | 60 | 0.0 | 9.7 | 0.00 | 0.48 | 0.48 | 41 | 1003.8 |
| 20260504225753 | 28 | 279 | 6.4 | 14.5 | 0.00 | 0.48 | 0.48 | 41 | 1003.9 |
| 20260504225248 | 28 | 254 | 9.7 | 16.1 | 0.00 | 0.48 | 0.48 | 42 | 1004.0 |
| 20260504224746 | 28 | 132 | 6.4 | 16.1 | 0.00 | 0.48 | 0.48 | 43 | 1003.9 |
| 20260504224243 | 28 | 297 | 9.7 | 14.5 | 0.00 | 0.48 | 0.48 | 41 | 1004.1 |
| 20260504223739 | 28 | 177 | 8.0 | 27.4 | 0.00 | 0.48 | 0.48 | 41 | 1004.1 |
| 20260504223235 | 28 | 175 | 4.8 | 9.7 | 0.00 | 0.48 | 0.48 | 42 | 1004.1 |
| 20260504222732 | 28 | 284 | 6.4 | 11.3 | 0.00 | 0.48 | 0.48 | 42 | 1004.1 |
| 20260504222229 | 28 | 157 | 14.5 | 19.3 | 0.00 | 0.48 | 0.48 | 43 | 1004.0 |
| 20260504221726 | 28 | 319 | 4.8 | 14.5 | 0.00 | 0.48 | 0.48 | 46 | 1004.0 |
| 20260504221223 | 28 | 156 | 4.8 | 16.1 | 0.00 | 0.48 | 0.48 | 44 | 1003.9 |
| 20260504220720 | 28 | 111 | 1.6 | 6.4 | 0.00 | 0.48 | 0.48 | 45 | 1004.1 |
| 20260504220217 | 28 | 128 | 6.4 | 8.0 | 0.00 | 0.48 | 0.48 | 44 | 1004.0 |
| 20260504215714 | 28 | 110 | 3.2 | 6.4 | 0.00 | 0.48 | 0.48 | 45 | 1003.9 |
| 20260504215211 | 28 | 323 | 6.4 | 9.7 | 0.00 | 0.48 | 0.48 | 45 | 1004.1 |
| 20260504214706 | 28 | 159 | 9.7 | 12.9 | 0.00 | 0.48 | 0.48 | 44 | 1004.2 |
| 20260504214203 | 28 | 141 | 8.0 | 8.0 | 0.00 | 0.48 | 0.48 | 47 | 1003.9 |
| 20260504213700 | 28 | 310 | 0.0 | 6.4 | 0.00 | 0.48 | 0.48 | 48 | 1003.9 |
| 20260504213157 | 27 | 82 | 0.0 | 6.4 | 0.00 | 0.48 | 0.48 | 47 | 1003.8 |
| 20260504212653 | 27 | 336 | 3.2 | 6.4 | 0.00 | 0.48 | 0.48 | 48 | 1004.0 |
| 20260504212150 | 27 | 16 | 3.2 | 9.7 | 0.00 | 0.48 | 0.48 | 50 | 1004.1 |
| 20260504211647 | 27 | 102 | 12.9 | 14.5 | 0.00 | 0.48 | 0.48 | 49 | 1004.4 |
| 20260504211143 | 26 | 36 | 1.6 | 4.8 | 0.00 | 0.48 | 0.48 | 55 | 1004.3 |
| 20260504210642 | 26 | 128 | 3.2 | 4.8 | 0.00 | 0.48 | 0.48 | 56 | 1004.4 |
| 20260504210137 | 25 | 46 | 1.6 | 6.4 | 0.00 | 0.48 | 0.48 | 57 | 1004.5 |
| 20260504205635 | 25 | 312 | 3.2 | 4.8 | 0.00 | 0.48 | 0.48 | 58 | 1004.6 |
| 20260504205132 | 25 | 79 | 4.8 | 6.4 | 0.00 | 0.48 | 0.48 | 58 | 1004.6 |
| 20260504204631 | 25 | 205 | 3.2 | 9.7 | 0.00 | 0.48 | 0.48 | 60 | 1004.8 |
| 20260504204129 | 23 | 2 | 4.8 | 12.9 | 0.00 | 0.48 | 0.48 | 61 | 1004.8 |
| 20260504203627 | 23 | 126 | 6.4 | 9.7 | 0.00 | 0.48 | 0.48 | 63 | 1004.9 |
| 20260504203120 | 22 | 50 | 4.8 | 20.9 | 0.00 | 0.48 | 0.48 | 64 | 1004.8 |
| 20260504202619 | 22 | 300 | 6.4 | 16.1 | 0.00 | 0.48 | 0.48 | 65 | 1005.0 |
| 20260504202117 | 21 | 349 | 3.2 | 9.7 | 0.00 | 0.48 | 0.48 | 69 | 1004.9 |
| 20260504201613 | 21 | 165 | 6.4 | 9.7 | 0.00 | 0.48 | 0.48 | 72 | 1005.0 |
| 20260504201111 | 20 | 318 | 4.8 | 19.3 | 0.00 | 0.48 | 0.48 | 73 | 1005.1 |
| 20260504200608 | 20 | 345 | 4.8 | 12.9 | 0.00 | 0.48 | 0.48 | 74 | 1005.1 |
| 20260504200104 | 20 | 132 | 4.8 | 17.7 | 0.23 | 0.48 | 0.48 | 68 | 1004.8 |
| 20260504195600 | 20 | 156 | 17.7 | 30.6 | 0.23 | 0.48 | 0.48 | 68 | 1004.2 |
| 20260504195057 | 19 | 224 | 8.0 | 20.9 | 0.00 | 0.46 | 0.46 | 75 | 1005.8 |
| 20260504194554 | 19 | 280 | 8.0 | 16.1 | 0.13 | 0.46 | 0.46 | 77 | 1006.0 |
| 20260504194049 | 19 | 355 | 4.8 | 9.7 | 0.23 | 0.46 | 0.46 | 76 | 1005.9 |
| 20260504193546 | 20 | 179 | 4.8 | 6.4 | 0.43 | 0.43 | 0.43 | 73 | 1005.8 |
| 20260504193045 | 20 | 102 | 4.8 | 11.3 | 0.23 | 0.38 | 0.38 | 70 | 1005.8 |
| 20260504192543 | 20 | 125 | 8.0 | 8.0 | 1.07 | 0.36 | 0.36 | 69 | 1006.1 |
| 20260504192040 | 20 | 64 | 12.9 | 19.3 | 1.75 | 0.33 | 0.33 | 75 | 1006.1 |
| 20260504191538 | 20 | 52 | 17.7 | 19.3 | 0.89 | 0.15 | 0.15 | 67 | 1006.4 |
| 20260504191034 | 21 | 323 | 19.3 | 35.4 | 0.00 | 0.00 | 0.00 | 61 | 1006.6 |
| 20260504190531 | 22 | 339 | 12.9 | 24.1 | 0.00 | 0.00 | 0.00 | 55 | 1006.4 |
| 20260504190026 | 23 | 329 | 17.7 | 27.4 | 0.00 | 0.00 | 0.00 | 53 | 1006.3 |
| 20260504185524 | 23 | 338 | 6.4 | 8.0 | 0.00 | 0.00 | 0.00 | 51 | 1006.1 |
| 20260504185020 | 23 | 11 | 3.2 | 6.4 | 0.00 | 0.00 | 0.00 | 49 | 1006.0 |
| 20260504184515 | 23 | 37 | 3.2 | 6.4 | 0.00 | 0.00 | 0.00 | 48 | 1006.1 |
| 20260504184011 | 24 | 342 | 3.2 | 4.8 | 0.00 | 0.00 | 0.00 | 49 | 1006.1 |
| 20260504183509 | 24 | 6 | 1.6 | 6.4 | 0.00 | 0.00 | 0.00 | 48 | 1006.4 |
| 20260504183007 | 24 | 124 | 6.4 | 8.0 | 0.00 | 0.00 | 0.00 | 47 | 1006.5 |
| 20260504182503 | 24 | 98 | 1.6 | 6.4 | 0.00 | 0.00 | 0.00 | 47 | 1006.6 |
| 20260504182000 | 25 | 192 | 8.0 | 9.7 | 0.00 | 0.00 | 0.00 | 47 | 1006.6 |
| 20260504181457 | 25 | 258 | 1.6 | 9.7 | 0.00 | 0.00 | 0.00 | 47 | 1006.6 |
| 20260504180956 | 25 | 49 | 4.8 | 8.0 | 0.00 | 0.00 | 0.00 | 48 | 1006.6 |
| 20260504180455 | 25 | 144 | 9.7 | 11.3 | 0.00 | 0.00 | 0.00 | 46 | 1006.3 |
| 20260504175953 | 25 | 141 | 6.4 | 6.4 | 0.00 | 0.00 | 0.00 | 48 | 1006.4 |
| 20260504175449 | 25 | 148 | 6.4 | 16.1 | 0.00 | 0.00 | 0.00 | 48 | 1006.5 |
| 20260504174947 | 25 | 147 | 9.7 | 12.9 | 0.00 | 0.00 | 0.00 | 49 | 1006.5 |
| 20260504174444 | 24 | 137 | 11.3 | 17.7 | 0.00 | 0.00 | 0.00 | 49 | 1006.6 |
| 20260504173942 | 23 | 97 | 4.8 | 8.0 | 0.00 | 0.00 | 0.00 | 51 | 1006.7 |
| 20260504173437 | 23 | 26 | 6.4 | 8.0 | 0.00 | 0.00 | 0.00 | 52 | 1006.7 |
| 20260504172936 | 23 | 49 | 1.6 | 6.4 | 0.00 | 0.00 | 0.00 | 53 | 1006.8 |
| 20260504172431 | 22 | 0 | 6.4 | 11.3 | 0.00 | 0.00 | 0.00 | 55 | 1006.7 |
| 20260504171928 | 22 | 89 | 4.8 | 8.0 | 0.00 | 0.00 | 0.00 | 56 | 1006.9 |
| 20260504171425 | 21 | 81 | 6.4 | 6.4 | 0.00 | 0.00 | 0.00 | 57 | 1007.0 |
| 20260504170922 | 21 | 60 | 3.2 | 6.4 | 0.00 | 0.00 | 0.00 | 57 | 1007.6 |
| 20260504170418 | 21 | 59 | 4.8 | 6.4 | 0.00 | 0.00 | 0.00 | 57 | 1007.7 |
| 20260504160337 | 20 | 48 | 3.2 | 4.8 | 0.00 | 0.00 | 0.00 | 58 | 1008.7 |
| 20260504150802 | 22 | 307 | 3.2 | 8.0 | 0.00 | 0.00 | 0.00 | 54 | 1009.2 |
| 20260504150259 | 22 | 320 | 1.6 | 6.4 | 0.00 | 0.00 | 0.00 | 54 | 1009.1 |
| 20260504141229 | 21 | 354 | 3.2 | 6.4 | 0.00 | 0.00 | 0.00 | 55 | 1008.6 |
| 20260504140725 | 21 | 9 | 4.8 | 8.0 | 0.00 | 0.00 | 0.00 | 55 | 1008.9 |
| 20260504140220 | 21 | 349 | 1.6 | 9.7 | 0.00 | 0.00 | 0.00 | 55 | 1008.9 |
| 20260504130649 | 19 | 354 | 4.8 | 8.0 | 0.00 | 0.00 | 0.00 | 61 | 1009.7 |
| 20260504130145 | 19 | 39 | 1.6 | 6.4 | 0.00 | 0.00 | 0.00 | 62 | 1009.7 |
| 20260504120110 | 15 | 19 | 3.2 | 4.8 | 0.00 | 0.00 | 0.00 | 75 | 1010.2 |
| 20260504110537 | 13 | 12 | 3.2 | 3.2 | 0.00 | 0.00 | 0.00 | 79 | 1009.9 |
| 20260504100459 | 13 | 316 | 3.2 | 3.2 | 0.00 | 0.00 | 0.00 | 79 | 1009.6 |
| 20260504081852 | 15 | 36 | 4.8 | 8.0 | 0.00 | 0.00 | 0.00 | 71 | 1009.5 |
| 20260504081349 | 15 | 340 | 3.2 | 4.8 | 0.00 | 0.00 | 0.00 | 70 | 1009.3 |
| 20260504080844 | 16 | 49 | 6.4 | 12.9 | 0.00 | 0.00 | 0.00 | 67 | 1009.6 |
| 20260504080342 | 16 | 72 | 9.7 | 14.5 | 0.00 | 0.00 | 0.00 | 67 | 1009.3 |
| 20260504070309 | 17 | 34 | 9.7 | 14.5 | 0.00 | 0.00 | 0.00 | 61 | 1009.8 |
| 20260504060230 | 18 | 145 | 3.2 | 9.7 | 0.00 | 0.00 | 0.00 | 57 | 1009.4 |
| 20260504050657 | 18 | 204 | 4.8 | 11.3 | 0.00 | 0.00 | 0.00 | 56 | 1009.3 |
| 20260504050154 | 18 | 111 | 6.4 | 20.9 | 0.00 | 0.00 | 0.00 | 56 | 1009.4 |
| 20260504045652 | 18 | 130 | 9.7 | 9.7 | 0.00 | 0.00 | 0.00 | 55 | 1009.5 |
| 20260504045152 | 18 | 38 | 6.4 | 11.3 | 0.00 | 0.00 | 0.00 | 55 | 1009.6 |
| 20260504044650 | 18 | 152 | 8.0 | 11.3 | 0.00 | 0.00 | 0.00 | 54 | 1009.8 |
| 20260504044146 | 18 | 116 | 3.2 | 14.5 | 0.00 | 0.00 | 0.00 | 54 | 1009.8 |
| 20260504043643 | 18 | 210 | 9.7 | 11.3 | 0.00 | 0.00 | 0.00 | 54 | 1010.2 |
| 20260504043141 | 18 | 45 | 3.2 | 14.5 | 0.00 | 0.00 | 0.00 | 53 | 1010.1 |
| 20260504042638 | 18 | 353 | 6.4 | 9.7 | 0.00 | 0.00 | 0.00 | 53 | 1010.2 |
| 20260504042134 | 18 | 52 | 4.8 | 9.7 | 0.00 | 0.00 | 0.00 | 53 | 1010.3 |
| 20260504041630 | 19 | 124 | 12.9 | 14.5 | 0.00 | 0.00 | 0.00 | 52 | 1010.4 |
| 20260504041126 | 19 | 113 | 3.2 | 9.7 | 0.00 | 0.00 | 0.00 | 52 | 1010.4 |
| 20260504040624 | 19 | 15 | 3.2 | 11.3 | 0.00 | 0.00 | 0.00 | 51 | 1010.5 |
| 20260504040121 | 19 | 337 | 8.0 | 11.3 | 0.00 | 0.00 | 0.00 | 51 | 1010.5 |
| 20260504035617 | 19 | 335 | 6.4 | 14.5 | 0.00 | 0.00 | 0.00 | 51 | 1010.6 |
| 20260504035114 | 19 | 8 | 4.8 | 14.5 | 0.00 | 0.00 | 0.00 | 51 | 1010.6 |
| 20260504034612 | 19 | 311 | 6.4 | 11.3 | 0.00 | 0.00 | 0.00 | 51 | 1010.7 |
| 20260504034108 | 19 | 67 | 9.7 | 11.3 | 0.00 | 0.00 | 0.00 | 51 | 1010.8 |
| 20260504033607 | 18 | 342 | 3.2 | 9.7 | 0.00 | 0.00 | 0.00 | 51 | 1010.9 |
| 20260504033103 | 18 | 322 | 3.2 | 8.0 | 0.00 | 0.00 | 0.00 | 52 | 1010.8 |
| 20260504032600 | 18 | 146 | 3.2 | 9.7 | 0.00 | 0.00 | 0.00 | 52 | 1010.8 |
| 20260504032057 | 18 | 114 | 3.2 | 6.4 | 0.00 | 0.00 | 0.00 | 53 | 1010.9 |
| 20260504031554 | 18 | 29 | 4.8 | 6.4 | 0.00 | 0.00 | 0.00 | 53 | 1010.8 |
| 20260504031050 | 19 | 74 | 3.2 | 6.4 | 0.00 | 0.00 | 0.00 | 53 | 1010.8 |
| 20260504030548 | 19 | 68 | 1.6 | 4.8 | 0.00 | 0.00 | 0.00 | 52 | 1010.8 |
| 20260504030043 | 20 | 130 | 3.2 | 14.5 | 0.00 | 0.00 | 0.00 | 50 | 1010.6 |
| 20260504025541 | 20 | 154 | 4.8 | 9.7 | 0.00 | 0.00 | 0.00 | 49 | 1010.7 |
| 20260504025038 | 20 | 160 | 3.2 | 8.0 | 0.00 | 0.00 | 0.00 | 48 | 1010.6 |
| 20260504024535 | 20 | 116 | 6.4 | 11.3 | 0.00 | 0.00 | 0.00 | 48 | 1010.7 |
| 20260504024031 | 20 | 239 | 1.6 | 9.7 | 0.00 | 0.00 | 0.00 | 48 | 1010.9 |
| 20260504023528 | 20 | 151 | 6.4 | 9.7 | 0.00 | 0.00 | 0.00 | 47 | 1010.8 |
| 20260504023024 | 20 | 163 | 1.6 | 11.3 | 0.00 | 0.00 | 0.00 | 47 | 1010.7 |
| 20260504022520 | 20 | 334 | 3.2 | 6.4 | 0.00 | 0.00 | 0.00 | 47 | 1010.6 |
| 20260504022017 | 20 | 129 | 4.8 | 6.4 | 0.00 | 0.00 | 0.00 | 47 | 1010.7 |
| 20260504021514 | 20 | 148 | 4.8 | 8.0 | 0.00 | 0.00 | 0.00 | 47 | 1010.6 |
| 20260504021011 | 20 | 143 | 8.0 | 12.9 | 0.00 | 0.00 | 0.00 | 46 | 1010.7 |
| 20260504020508 | 20 | 342 | 4.8 | 6.4 | 0.00 | 0.00 | 0.00 | 46 | 1010.4 |
| 20260504020005 | 20 | 232 | 6.4 | 9.7 | 0.00 | 0.00 | 0.00 | 46 | 1010.3 |
| 20260504015501 | 21 | 142 | 6.4 | 11.3 | 0.00 | 0.00 | 0.00 | 46 | 1010.5 |
| 20260504014956 | 21 | 44 | 4.8 | 8.0 | 0.00 | 0.00 | 0.00 | 45 | 1010.4 |
| 20260504014453 | 21 | 105 | 3.2 | 6.4 | 0.00 | 0.00 | 0.00 | 45 | 1010.2 |
| 20260504013950 | 21 | 74 | 6.4 | 9.7 | 0.00 | 0.00 | 0.00 | 44 | 1010.3 |
| 20260504013448 | 21 | 186 | 4.8 | 14.5 | 0.00 | 0.00 | 0.00 | 44 | 1010.2 |
| 20260504012944 | 21 | 165 | 3.2 | 8.0 | 0.00 | 0.00 | 0.00 | 44 | 1010.3 |
| 20260504012442 | 21 | 173 | 3.2 | 8.0 | 0.00 | 0.00 | 0.00 | 43 | 1010.1 |